createdAt,value
2019-02-17T00:02:56.678Z,38.25
2019-02-17T00:15:13.290Z,35.43
2019-02-17T00:24:40.293Z,31.30
2019-02-17T00:57:04.956Z,30.92
2019-02-17T01:00:41.049Z,32.60
2019-02-17T01:04:22.004Z,35.23
2019-02-17T01:12:04.046Z,29.85
2019-02-17T01:22:09.281Z,28.00
2019-02-17T01:25:21.683Z,27.95
2019-02-17T01:36:37.748Z,27.35
2019-02-17T01:44:02.304Z,30.90
2019-02-17T01:59:07.429Z,37.23
2019-02-17T02:12:49.371Z,31.80
2019-02-17T02:16:53.035Z,31.70
2019-02-17T02:24:15.754Z,28.32
2019-02-17T02:28:54.451Z,30.48
2019-02-17T02:36:34.653Z,36.53
2019-02-17T02:57:06.419Z,35.65
2019-02-17T03:01:00.546Z,34.33
2019-02-17T03:11:42.527Z,35.05
2019-02-17T03:15:18.804Z,42.25
2019-02-17T03:19:10.495Z,42.40
2019-02-17T03:22:15.778Z,38.48
2019-02-17T03:25:45.368Z,37.25
2019-02-17T03:29:35.235Z,43.58
2019-02-17T03:42:54.829Z,41.85
2019-02-17T03:50:02.421Z,51.45
2019-02-17T03:53:33.783Z,47.35
2019-02-17T03:56:38.255Z,46.48
2019-02-17T04:06:19.450Z,44.83
2019-02-17T04:09:36.139Z,48.02
2019-02-17T04:17:32.580Z,39.85
2019-02-17T04:27:55.135Z,44.35
2019-02-17T04:32:00.995Z,45.75
2019-02-17T04:34:53.518Z,42.58
2019-02-17T04:38:23.183Z,43.87
2019-02-17T04:50:58.331Z,44.98
2019-02-17T04:56:55.964Z,46.63
2019-02-17T05:11:44.282Z,46.63
2019-02-17T05:14:08.784Z,47.30
2019-02-17T05:15:13.131Z,43.13
2019-02-17T05:31:18.083Z,55.63
2019-02-17T05:34:58.974Z,57.43
2019-02-17T05:56:13.589Z,54.42
2019-02-17T06:10:53.138Z,46.63
2019-02-17T06:13:34.567Z,40.58
2019-02-17T06:23:12.908Z,35.80
2019-02-17T06:26:02.239Z,43.00
2019-02-17T06:28:58.743Z,44.13
2019-02-17T06:31:53.200Z,38.80
2019-02-17T06:45:14.709Z,40.90
2019-02-17T06:48:12.574Z,43.48
2019-02-17T06:51:07.560Z,42.03
2019-02-17T06:54:13.829Z,42.85
2019-02-17T07:01:06.366Z,46.68
2019-02-17T07:04:17.190Z,58.17
2019-02-17T07:07:02.911Z,52.53
2019-02-17T07:10:10.752Z,47.80
2019-02-17T07:13:28.120Z,50.28
2019-02-17T07:16:01.287Z,52.48
2019-02-17T07:19:22.568Z,49.03
2019-02-17T07:22:24.962Z,49.03
2019-02-17T07:26:17.032Z,47.30
2019-02-17T07:28:57.324Z,48.90
2019-02-17T07:31:46.421Z,57.95
2019-02-17T07:34:45.964Z,49.05
2019-02-17T07:37:42.047Z,42.15
2019-02-17T07:40:15.533Z,56.18
2019-02-17T07:42:54.889Z,49.80
2019-02-17T07:45:28.893Z,48.60
2019-02-17T07:48:27.354Z,41.30
2019-02-17T07:51:10.918Z,44.50
2019-02-17T07:54:02.471Z,44.13
2019-02-17T07:58:27.594Z,44.42
2019-02-17T07:59:23.295Z,45.65
2019-02-17T08:02:06.561Z,49.18
2019-02-17T08:04:54.361Z,48.30
2019-02-17T08:07:24.267Z,45.95
2019-02-17T08:09:55.072Z,42.53
2019-02-17T08:12:27.556Z,41.92
2019-02-17T08:14:56.963Z,43.98
2019-02-17T08:17:26.328Z,43.05
2019-02-17T08:19:55.780Z,50.45
2019-02-17T08:22:24.955Z,49.80
2019-02-17T08:24:54.237Z,50.55
2019-02-17T08:27:25.651Z,56.20
2019-02-17T08:29:55.411Z,63.78
2019-02-17T08:32:28.073Z,52.67
2019-02-17T08:34:57.647Z,58.20
2019-02-17T08:37:27.495Z,52.13
2019-02-17T08:39:57.190Z,48.70
2019-02-17T08:43:05.494Z,50.25
2019-02-17T08:45:37.329Z,44.33
2019-02-17T08:48:07.468Z,45.90
2019-02-17T08:50:37.554Z,46.02
2019-02-17T08:53:09.247Z,43.10
2019-02-17T08:55:39.573Z,47.17
2019-02-17T08:58:09.000Z,41.25
2019-02-17T09:00:38.933Z,42.47
2019-02-17T09:03:08.347Z,38.43
2019-02-17T09:05:44.079Z,40.20
2019-02-17T09:08:10.103Z,39.00
2019-02-17T09:10:39.688Z,39.97
2019-02-17T09:13:08.712Z,47.30
2019-02-17T09:15:37.501Z,42.03
2019-02-17T09:18:06.392Z,40.63
2019-02-17T09:20:35.514Z,41.07
2019-02-17T09:23:04.356Z,40.33
2019-02-17T09:25:33.114Z,39.27
2019-02-17T09:28:01.917Z,40.23
2019-02-17T09:30:30.775Z,44.38
2019-02-17T09:32:59.627Z,44.23
2019-02-17T09:35:28.374Z,38.80
2019-02-17T09:37:57.472Z,40.07
2019-02-17T09:40:26.302Z,38.80
2019-02-17T09:42:55.227Z,42.50
2019-02-17T09:45:23.997Z,39.37
2019-02-17T09:47:53.045Z,41.80
2019-02-17T09:50:21.905Z,41.30
2019-02-17T09:52:50.925Z,42.07
2019-02-17T09:55:19.683Z,40.60
2019-02-17T09:57:48.444Z,40.63
2019-02-17T10:00:17.333Z,40.97
2019-02-17T10:02:46.225Z,40.97
2019-02-17T10:05:15.566Z,41.60
2019-02-17T10:07:44.389Z,40.40
2019-02-17T10:10:13.975Z,39.50
2019-02-17T10:12:43.307Z,37.80
2019-02-17T10:15:12.881Z,36.00
2019-02-17T10:17:42.107Z,38.97
2019-02-17T10:20:11.330Z,38.97
2019-02-17T10:22:40.294Z,38.43
2019-02-17T10:25:09.641Z,37.17
2019-02-17T10:27:38.611Z,37.60
2019-02-17T10:30:09.043Z,36.30
2019-02-17T10:32:39.236Z,37.67
2019-02-17T10:35:08.706Z,35.90
2019-02-17T10:37:37.780Z,34.13
2019-02-17T10:40:08.370Z,35.90
2019-02-17T10:42:37.773Z,38.83
2019-02-17T10:45:07.230Z,37.97
2019-02-17T10:47:36.064Z,39.93
2019-02-17T10:50:05.179Z,38.80
2019-02-17T10:52:35.056Z,35.03
2019-02-17T10:55:05.097Z,35.90
2019-02-17T10:57:34.819Z,34.93
2019-02-17T11:00:05.040Z,35.53
2019-02-17T11:02:33.903Z,38.00
2019-02-17T11:05:03.709Z,37.23
2019-02-17T11:07:32.574Z,33.43
2019-02-17T11:10:01.535Z,32.03
2019-02-17T11:12:30.491Z,33.77
2019-02-17T11:14:59.315Z,33.63
2019-02-17T11:17:28.227Z,31.83
2019-02-17T11:19:57.159Z,35.43
2019-02-17T11:22:26.288Z,35.07
2019-02-17T11:24:57.875Z,36.43
2019-02-17T11:27:26.897Z,35.50
2019-02-17T11:29:57.127Z,32.40
2019-02-17T11:32:26.271Z,29.67
2019-02-17T11:34:55.216Z,31.53
2019-02-17T11:37:24.935Z,30.73
2019-02-17T11:39:53.875Z,30.60
2019-02-17T11:42:25.240Z,28.53
2019-02-17T11:44:56.997Z,30.13
2019-02-17T11:47:27.591Z,26.97
2019-02-17T11:49:57.037Z,25.07
2019-02-17T11:52:25.876Z,28.83
2019-02-17T11:54:55.881Z,25.97
2019-02-17T11:57:24.724Z,24.73
2019-02-17T11:59:53.844Z,28.10
2019-02-17T12:02:25.235Z,26.67
2019-02-17T12:04:53.673Z,27.13
2019-02-17T12:07:23.834Z,26.33
2019-02-17T12:09:53.908Z,23.17
2019-02-17T12:12:24.612Z,26.00
2019-02-17T12:14:58.308Z,26.23
2019-02-17T12:20:23.812Z,20.27
2019-02-17T12:23:06.180Z,20.37
2019-02-17T12:25:48.538Z,21.93
2019-02-17T12:28:22.519Z,23.07
2019-02-17T12:30:52.006Z,22.40
2019-02-17T12:33:22.055Z,20.80
2019-02-17T12:35:52.175Z,20.17
2019-02-17T12:38:24.255Z,19.43
2019-02-17T12:40:54.563Z,19.13
2019-02-17T12:43:23.816Z,18.10
2019-02-17T12:45:52.583Z,19.67
2019-02-17T12:48:21.581Z,21.57
2019-02-17T12:50:50.932Z,18.80
2019-02-17T12:53:20.106Z,19.40
2019-02-17T12:55:49.310Z,20.67
2019-02-17T12:58:20.139Z,17.50
2019-02-17T13:00:49.511Z,18.03
2019-02-17T13:03:28.321Z,16.80
2019-02-17T13:05:50.734Z,18.70
2019-02-17T13:08:20.075Z,20.27
2019-02-17T13:10:49.728Z,18.70
2019-02-17T13:13:18.862Z,19.67
2019-02-17T13:15:49.649Z,17.03
2019-02-17T13:18:19.285Z,23.37
2019-02-17T13:20:48.387Z,20.47
2019-02-17T13:23:17.439Z,17.97
2019-02-17T13:25:46.289Z,21.63
2019-02-17T13:28:15.426Z,22.17
2019-02-17T13:30:44.255Z,19.57
2019-02-17T13:33:13.623Z,24.70
2019-02-17T13:35:42.732Z,21.47
2019-02-17T13:38:12.332Z,22.33
2019-02-17T13:40:42.971Z,22.67
2019-02-17T13:43:12.118Z,21.47
2019-02-17T13:45:41.212Z,18.60
2019-02-17T13:48:10.831Z,22.60
2019-02-17T13:50:39.699Z,18.73
2019-02-17T13:53:11.675Z,19.63
2019-02-17T13:55:39.311Z,21.10
2019-02-17T13:58:08.193Z,20.47
2019-02-17T14:00:36.987Z,18.17
2019-02-17T14:03:05.863Z,19.63
2019-02-17T14:05:34.968Z,17.53
2019-02-17T14:08:04.097Z,17.87
2019-02-17T14:10:35.474Z,18.43
2019-02-17T14:13:04.339Z,17.57
2019-02-17T14:15:33.263Z,20.13
2019-02-17T14:18:02.761Z,17.47
2019-02-17T14:20:31.827Z,16.60
2019-02-17T14:23:00.697Z,20.23
2019-02-17T14:25:29.514Z,15.70
2019-02-17T14:27:58.576Z,16.33
2019-02-17T14:30:27.478Z,17.93
2019-02-17T14:32:56.650Z,16.53
2019-02-17T14:35:25.486Z,17.43
2019-02-17T14:37:54.522Z,18.10
2019-02-17T14:40:23.319Z,17.60
2019-02-17T14:42:55.262Z,16.57
2019-02-17T14:45:22.701Z,14.83
2019-02-17T14:47:51.500Z,20.37
2019-02-17T14:50:20.363Z,17.30
2019-02-17T14:52:49.242Z,17.17
2019-02-17T14:55:18.458Z,15.33
2019-02-17T14:57:47.317Z,14.23
2019-02-17T15:00:16.234Z,15.63
2019-02-17T15:02:45.307Z,17.13
2019-02-17T15:05:14.200Z,19.00
2019-02-17T15:07:43.008Z,15.93
2019-02-17T15:10:12.166Z,16.73
2019-02-17T15:12:41.505Z,15.87
2019-02-17T15:15:10.461Z,16.23
2019-02-17T15:17:39.534Z,17.77
2019-02-17T15:20:10.289Z,16.87
2019-02-17T15:22:39.172Z,15.90
2019-02-17T15:25:09.176Z,15.98
2019-02-17T15:27:38.050Z,17.25
2019-02-17T15:30:08.700Z,17.12
2019-02-17T15:32:37.626Z,16.95
2019-02-17T15:35:07.160Z,18.07
2019-02-17T15:37:36.023Z,13.53
2019-02-17T15:40:05.120Z,17.80
2019-02-17T15:42:34.046Z,16.67
2019-02-17T15:45:02.882Z,17.90
2019-02-17T15:47:31.711Z,15.00
2019-02-17T15:50:00.764Z,16.57
2019-02-17T15:52:30.199Z,14.80
2019-02-17T15:54:59.272Z,16.60
2019-02-17T15:57:28.177Z,18.65
2019-02-17T15:59:57.298Z,17.82
2019-02-17T16:02:26.335Z,14.40
2019-02-17T16:04:55.438Z,16.40
2019-02-17T16:07:24.564Z,16.42
2019-02-17T16:09:53.415Z,16.42
2019-02-17T16:12:22.686Z,20.57
2019-02-17T16:14:53.940Z,14.63
2019-02-17T16:17:22.993Z,18.02
2019-02-17T16:19:51.843Z,15.00
2019-02-17T16:22:23.199Z,16.12
2019-02-17T16:24:52.236Z,18.42
2019-02-17T16:27:21.096Z,17.15
2019-02-17T16:29:50.121Z,17.37
2019-02-17T16:32:19.292Z,18.98
2019-02-17T16:34:48.110Z,22.50
2019-02-17T16:37:17.012Z,19.55
2019-02-17T16:39:45.792Z,18.00
2019-02-17T16:42:14.861Z,19.77
2019-02-17T16:44:43.712Z,17.75
2019-02-17T16:47:12.463Z,17.23
2019-02-17T16:49:41.219Z,21.93
2019-02-17T16:52:10.048Z,18.32
2019-02-17T16:54:38.873Z,26.00
2019-02-17T16:57:08.056Z,21.75
2019-02-17T16:59:36.850Z,19.55
2019-02-17T17:02:05.767Z,20.88
2019-02-17T17:04:34.587Z,15.18
2019-02-17T17:07:03.760Z,17.05
2019-02-17T17:09:32.819Z,20.50
2019-02-17T17:12:01.598Z,18.45
2019-02-17T17:14:30.540Z,19.55
2019-02-17T17:16:59.378Z,17.70
2019-02-17T17:19:28.750Z,22.42
2019-02-17T17:21:57.556Z,18.57
2019-02-17T17:24:26.552Z,19.32
2019-02-17T17:26:55.576Z,23.85
2019-02-17T17:29:24.410Z,21.02
2019-02-17T17:31:53.267Z,16.80
2019-02-17T17:34:22.012Z,20.92
2019-02-17T17:36:51.091Z,20.45
2019-02-17T17:39:19.896Z,21.75
2019-02-17T17:41:48.907Z,17.98
2019-02-17T17:44:17.729Z,19.80
2019-02-17T17:46:46.504Z,19.70
2019-02-17T17:49:19.275Z,21.68
2019-02-17T17:51:45.856Z,22.15
2019-02-17T17:54:14.753Z,28.50
2019-02-17T17:56:43.870Z,19.90
2019-02-17T17:59:13.012Z,23.95
2019-02-17T18:01:44.302Z,22.10
2019-02-17T18:04:13.215Z,20.10
2019-02-17T18:09:17.022Z,21.12
2019-02-17T18:11:52.190Z,20.75
2019-02-17T18:14:27.009Z,24.67
2019-02-17T18:16:58.290Z,21.97
2019-02-17T18:19:28.730Z,24.00
2019-02-17T18:22:04.525Z,23.27
2019-02-17T18:24:37.387Z,22.02
2019-02-17T18:27:08.341Z,27.98
2019-02-17T18:29:39.253Z,24.00
2019-02-17T18:32:09.242Z,27.90
2019-02-17T18:34:39.074Z,26.90
2019-02-17T18:37:10.992Z,22.42
2019-02-17T18:39:39.768Z,27.07
2019-02-17T18:42:08.865Z,29.10
2019-02-17T18:44:37.655Z,24.30
2019-02-17T18:47:06.430Z,26.15
2019-02-17T18:49:35.208Z,28.57
2019-02-17T18:52:04.060Z,28.90
2019-02-17T18:54:36.419Z,26.75
2019-02-17T18:57:08.162Z,30.72
2019-02-17T18:59:36.567Z,31.62
2019-02-17T19:02:05.357Z,31.73
2019-02-17T19:04:34.453Z,32.25
2019-02-17T19:07:03.527Z,30.43
2019-02-17T19:09:32.390Z,33.10
2019-02-17T19:12:01.570Z,33.90
2019-02-17T19:14:30.700Z,28.15
2019-02-17T19:16:59.494Z,33.70
2019-02-17T19:19:28.418Z,34.73
2019-02-17T19:21:57.243Z,33.25
2019-02-17T19:24:26.075Z,33.50
2019-02-17T19:26:57.819Z,34.35
2019-02-17T19:29:26.913Z,34.67
2019-02-17T19:31:55.748Z,32.03
2019-02-17T19:34:24.714Z,43.35
2019-02-17T19:36:53.534Z,35.58
2019-02-17T19:39:22.639Z,39.25
2019-02-17T19:41:51.435Z,34.73
2019-02-17T19:44:20.532Z,33.58
2019-02-17T19:46:49.611Z,33.15
2019-02-17T19:49:18.750Z,34.73
2019-02-17T19:51:49.648Z,33.10
2019-02-17T19:54:18.347Z,37.17
2019-02-17T19:56:47.398Z,35.08
2019-02-17T19:59:16.425Z,32.38
2019-02-17T20:01:45.523Z,30.75
2019-02-17T20:04:24.205Z,33.78
2019-02-17T20:06:53.104Z,34.83
2019-02-17T20:09:22.122Z,37.23
2019-02-17T20:11:52.374Z,37.35
2019-02-17T20:14:21.617Z,39.80
2019-02-17T20:16:50.467Z,34.58
2019-02-17T20:19:19.272Z,36.68
2019-02-17T20:21:48.172Z,40.58
2019-02-17T20:24:17.051Z,37.35
2019-02-17T20:26:45.871Z,38.55
2019-02-17T20:29:14.646Z,37.05
2019-02-17T20:31:43.798Z,42.03
2019-02-17T20:34:14.579Z,38.65
2019-02-17T20:36:43.085Z,44.93
2019-02-17T20:39:12.196Z,42.27
2019-02-17T20:41:41.299Z,41.33
2019-02-17T20:44:10.182Z,42.38
2019-02-17T20:46:39.461Z,37.58
2019-02-17T20:49:08.266Z,42.15
2019-02-17T20:51:37.074Z,38.10
2019-02-17T20:54:05.971Z,49.15
2019-02-17T20:56:34.823Z,44.80
2019-02-17T20:59:03.712Z,41.08
2019-02-17T21:01:32.498Z,44.77
2019-02-17T21:04:01.366Z,42.03
2019-02-17T21:06:30.354Z,42.38
2019-02-17T21:08:59.480Z,45.45
2019-02-17T21:11:28.555Z,41.45
2019-02-17T21:13:57.502Z,42.53
2019-02-17T21:16:26.357Z,39.13
2019-02-17T21:18:55.249Z,40.00
2019-02-17T21:21:24.323Z,40.88
2019-02-17T21:23:53.190Z,43.73
2019-02-17T21:26:26.307Z,50.08
2019-02-17T21:28:52.802Z,42.43
2019-02-17T21:31:21.824Z,44.60
2019-02-17T21:33:50.826Z,49.95
2019-02-17T21:36:23.129Z,44.30
2019-02-17T21:38:50.739Z,44.63
2019-02-17T21:41:19.619Z,43.52
2019-02-17T21:43:48.441Z,43.92
2019-02-17T21:46:17.612Z,39.38
2019-02-17T21:48:46.964Z,40.20
2019-02-17T21:51:15.798Z,39.53
2019-02-17T21:53:44.571Z,40.83
2019-02-17T21:56:13.508Z,47.73
2019-02-17T21:58:42.383Z,46.90
2019-02-17T22:01:11.215Z,43.58
2019-02-17T22:03:40.009Z,42.20
2019-02-17T22:06:09.022Z,41.95
2019-02-17T22:08:37.996Z,49.88
2019-02-17T22:11:06.836Z,48.60
2019-02-17T22:13:35.796Z,49.33
2019-02-17T22:16:04.895Z,50.03
2019-02-17T22:18:35.568Z,51.65
2019-02-17T22:21:04.547Z,50.17
2019-02-17T22:23:33.391Z,50.03
2019-02-17T22:26:02.296Z,48.55
2019-02-17T22:28:31.088Z,54.90
2019-02-17T22:31:00.337Z,56.00
2019-02-17T22:33:29.207Z,54.40
2019-02-17T22:35:57.996Z,45.70
2019-02-17T22:38:26.764Z,50.15
2019-02-17T22:40:55.755Z,54.95
2019-02-17T22:43:24.572Z,49.03
2019-02-17T22:45:53.326Z,52.05
2019-02-17T22:48:22.086Z,50.58
2019-02-17T22:50:50.855Z,54.60
2019-02-17T22:53:19.640Z,51.13
2019-02-17T22:55:48.659Z,48.92
2019-02-17T22:58:17.453Z,55.40
2019-02-17T23:00:59.358Z,56.40
2019-02-17T23:03:28.698Z,45.48
2019-02-17T23:05:58.061Z,45.78
2019-02-17T23:08:26.995Z,47.10
2019-02-17T23:10:55.912Z,49.30
2019-02-17T23:13:24.940Z,50.35
2019-02-17T23:15:53.696Z,53.75
2019-02-17T23:18:22.592Z,53.63
2019-02-17T23:20:51.444Z,50.92
2019-02-17T23:23:20.212Z,55.95
2019-02-17T23:25:49.072Z,49.15
2019-02-17T23:28:17.842Z,53.40
2019-02-17T23:30:46.594Z,47.15
2019-02-17T23:33:15.337Z,59.77
2019-02-17T23:35:44.153Z,50.40
2019-02-17T23:38:12.923Z,49.42
2019-02-17T23:40:41.747Z,55.12
2019-02-17T23:43:10.499Z,49.10
2019-02-17T23:45:39.561Z,53.98
2019-02-17T23:48:08.564Z,49.15
2019-02-17T23:50:37.307Z,44.53
2019-02-17T23:53:06.071Z,53.38
2019-02-17T23:55:34.910Z,52.40
2019-02-17T23:58:03.905Z,53.48
